map of PQQ home
PQQ - Airport
Location
City:  Port Macquarie, New South Wales, Australia
ICAO:YPMQ
IATA:PQQ

Details
Type:Airport (Aerodrome, Airfield)
Latitude:3126'09"S (-31.435832)
Longitude:15251'48"E (152.863333)
Datum:WGS 1984
Elevation:12 ft (4 m)
Variation:12.21E (WMM2015v2 magnetic declination)
0.00 annual change
Runways:2
Longest:5203 × 98 ft (1586 × 30 m), paved

Time
Time Zone:UTC+10 (DST+11)
Local Time:

Weather
METAR:YPMQ 040630Z AUTO 03015G25KT 9999 // NCD 28/20 Q1011

Related Locations
Nearby:
Farthest:SMA: 12033 mi / 19365 km
Santa Maria, 20, PT

Find:

   beyond  
but within

Other Information
Maps:
NOTAMs:
Links:
Sources:

  
  • flag of Australia
  • flag of New South Wales
  

Sectional Chart

Flight Planning
at skyvector.com

Satellite Image

Google Maps Satellite view

 

Copyright © 2004-2019 Karl L. Swartz. All rights reserved.
The Great Circle Mapper name and logo are trademarks of the Great Circle Mapper.
All other trademarks mentioned herein belong to their respective owners.
Please see credits for attibutions and further copyright information.

  Follow gcmap on Facebook Follow gcmap on Twitter GCmap on LinkedIn

hCard Microformat

Geo Microformat